Time;durP1;ratioP1;P1;durP2;ratioP2;P2;SDS_P1;SDS_P2;PMS_P1;PMS_P2;Temp;Humidity;BMP_temperature;BMP_pressure;BME280_temperature;BME280_humidity;BME280_pressure;Samples;Min_cycle;Max_cycle;Signal;HPM_P1;HPM_P2
2022/12/20 00:00:30;;;;;;;8.90;5.07;;;;;;;;;;5038250;28;20044;-82
2022/12/20 00:03:14;;;;;;;10.32;5.00;;;;;;;;;;5052113;28;20461;-81
2022/12/20 00:05:59;;;;;;;8.45;4.05;;;;;;;;;;5052006;28;20495;-81
2022/12/20 00:08:44;;;;;;;7.70;4.30;;;;;;;;;;5051853;28;20070;-81
2022/12/20 00:11:29;;;;;;;7.22;4.07;;;;;;;;;;5053188;28;20090;-81
2022/12/20 00:14:13;;;;;;;8.35;4.55;;;;;;;;;;5052234;28;20385;-81
2022/12/20 00:16:58;;;;;;;19.10;5.80;;;;;;;;;;5051609;28;20048;-81
2022/12/20 00:19:45;;;;;;;9.73;4.07;;;;;;;;;;5051687;28;20489;-81
2022/12/20 00:22:30;;;;;;;6.43;4.03;;;;;;;;;;5051899;28;20048;-82
2022/12/20 00:25:15;;;;;;;9.90;4.22;;;;;;;;;;5053060;28;20148;-80
2022/12/20 00:28:01;;;;;;;9.48;3.88;;;;;;;;;;5051713;28;20433;-81
2022/12/20 00:30:46;;;;;;;6.78;4.00;;;;;;;;;;5052626;28;20039;-81
2022/12/20 00:33:31;;;;;;;6.72;3.90;;;;;;;;;;5051827;28;20580;-81
2022/12/20 00:36:16;;;;;;;6.72;4.28;;;9.40;99.90;;;;;;5051791;28;20035;-81
2022/12/20 00:39:01;;;;;;;6.35;3.72;;;;;;;;;;5052418;28;20344;-83
2022/12/20 00:41:46;;;;;;;6.05;3.80;;;;;;;;;;5052328;28;20548;-81
2022/12/20 00:44:31;;;;;;;6.20;4.00;;;;;;;;;;5051660;28;20079;-81
2022/12/20 00:47:15;;;;;;;6.75;4.30;;;;;;;;;;5051631;28;20036;-80
2022/12/20 00:50:00;;;;;;;5.15;3.75;;;;;;;;;;5051387;28;20536;-80
2022/12/20 00:52:44;;;;;;;7.55;3.72;;;;;;;;;;5051987;28;20044;-81
2022/12/20 00:55:29;;;;;;;6.93;3.55;;;;;;;;;;5052683;28;20044;-80
2022/12/20 00:58:13;;;;;;;6.18;3.42;;;;;;;;;;5052563;28;20118;-81
2022/12/20 01:00:58;;;;;;;6.45;3.50;;;;;;;;;;5037318;28;20059;-81
2022/12/20 01:03:43;;;;;;;6.97;3.85;;;;;;;;;;5052477;28;20098;-81
2022/12/20 01:06:28;;;;;;;6.35;3.97;;;;;;;;;;5052498;28;20495;-80
2022/12/20 01:09:12;;;;;;;8.48;3.60;;;;;;;;;;5051476;28;20535;-81
2022/12/20 01:11:57;;;;;;;5.28;3.28;;;;;;;;;;5051185;28;20561;-80
2022/12/20 01:14:41;;;;;;;7.70;4.00;;;;;;;;;;5051500;28;20120;-81
2022/12/20 01:17:26;;;;;;;4.97;3.60;;;;;;;;;;5051514;28;20044;-81
2022/12/20 01:20:11;;;;;;;5.70;3.75;;;;;;;;;;5051979;28;20056;-81
2022/12/20 01:22:56;;;;;;;7.60;3.70;;;;;;;;;;5052000;28;20048;-81
2022/12/20 01:25:40;;;;;;;6.90;3.53;;;;;;;;;;5052133;28;20500;-80
2022/12/20 01:28:25;;;;;;;5.97;3.42;;;;;;;;;;5052312;28;20036;-81
2022/12/20 01:31:11;;;;;;;6.68;3.70;;;;;;;;;;5051980;28;20112;-81
2022/12/20 01:33:56;;;;;;;6.63;3.92;;;;;;;;;;5050942;28;20043;-82
2022/12/20 01:36:41;;;;;;;7.95;4.78;;;;;;;;;;5051317;28;20517;-81
2022/12/20 01:39:26;;;;;;;7.68;3.90;;;;;;;;;;5051174;28;20044;-81
2022/12/20 01:42:14;;;;;;;5.47;3.03;;;;;;;;;;5050781;28;20103;-81
2022/12/20 01:44:59;;;;;;;6.18;3.22;;;;;;;;;;5051721;28;20032;-81
2022/12/20 01:47:43;;;;;;;7.30;3.65;;;;;;;;;;5051013;28;20145;-81
2022/12/20 01:50:28;;;;;;;7.65;3.85;;;;;;;;;;5052234;28;20079;-80
2022/12/20 01:53:13;;;;;;;5.70;3.72;;;;;;;;;;5050670;28;20544;-81
2022/12/20 01:56:00;;;;;;;7.05;3.90;;;9.60;99.90;;;;;;5051828;28;20110;-81
2022/12/20 01:58:46;;;;;;;5.00;3.30;;;;;;;;;;5052189;28;20040;-80
2022/12/20 02:01:31;;;;;;;6.45;3.55;;;;;;;;;;5050770;28;20112;-81
2022/12/20 02:04:15;;;;;;;6.85;3.38;;;;;;;;;;5051714;28;20040;-81
2022/12/20 02:07:00;;;;;;;10.73;4.55;;;;;;;;;;5054890;28;20040;-81
2022/12/20 02:09:46;;;;;;;7.63;3.30;;;;;;;;;;5055411;28;20039;-81
2022/12/20 02:12:41;;;;;;;6.78;4.00;;;;;;;;;;5055567;28;20075;-80
2022/12/20 02:15:39;;;;;;;7.30;3.13;;;;;;;;;;5055369;28;20405;-81
2022/12/20 02:18:36;;;;;;;8.20;3.60;;;;;;;;;;5055563;28;20040;-81
2022/12/20 02:21:29;;;;;;;5.40;3.00;;;;;;;;;;5055191;28;20032;-81
2022/12/20 02:24:35;;;;;;;7.80;3.40;;;9.60;99.90;;;;;;5054064;28;20039;-81
2022/12/20 02:27:20;;;;;;;6.30;3.63;;;;;;;;;;5053763;28;20267;-80
2022/12/20 02:30:05;;;;;;;5.65;3.50;;;;;;;;;;5054793;28;20129;-81
2022/12/20 02:32:58;;;;;;;5.22;3.30;;;;;;;;;;5054965;28;20066;-81
2022/12/20 02:35:43;;;;;;;5.37;2.87;;;;;;;;;;5054933;28;20036;-82
2022/12/20 02:38:27;;;;;;;8.63;3.80;;;;;;;;;;5054557;28;20333;-81
2022/12/20 02:41:23;;;;;;;4.93;3.25;;;;;;;;;;5054604;28;20075;-82
2022/12/20 02:47:20;;;;;;;11.88;4.75;;;;;;;;;;5054364;28;20159;-82
2022/12/20 02:50:06;;;;;;;8.13;3.67;;;;;;;;;;5053427;28;20104;-81
2022/12/20 02:52:51;;;;;;;7.60;3.33;;;;;;;;;;5054755;28;20579;-81
2022/12/20 02:55:53;;;;;;;7.38;3.67;;;;;;;;;;5054610;28;20060;-81
2022/12/20 02:58:41;;;;;;;15.98;4.47;;;;;;;;;;5054630;28;20036;-81
2022/12/20 03:01:44;;;;;;;4.65;3.40;;;9.60;99.90;;;;;;5054377;28;20044;-82
2022/12/20 03:04:30;;;;;;;7.05;3.70;;;;;;;;;;5053515;28;20120;-81
2022/12/20 03:07:15;;;;;;;9.35;3.55;;;;;;;;;;5053058;28;20090;-81
2022/12/20 03:10:00;;;;;;;7.18;4.45;;;;;;;;;;5053338;28;20090;-80
2022/12/20 03:12:44;;;;;;;6.57;3.92;;;;;;;;;;5054256;28;20449;-80
2022/12/20 03:15:29;;;;;;;6.55;4.20;;;;;;;;;;5054234;28;20405;-80
2022/12/20 03:18:14;;;;;;;6.10;4.22;;;;;;;;;;5052975;28;20060;-81
2022/12/20 03:20:58;;;;;;;6.35;4.20;;;;;;;;;;5053275;28;20047;-80
2022/12/20 03:23:42;;;;;;;11.05;4.18;;;;;;;;;;5054249;28;20127;-80
2022/12/20 03:26:27;;;;;;;9.45;4.10;;;;;;;;;;5053906;28;20504;-80
2022/12/20 03:29:12;;;;;;;5.65;3.83;;;;;;;;;;5053663;28;20568;-80
2022/12/20 03:31:56;;;;;;;6.57;4.22;;;;;;;;;;5053991;28;20043;-80
2022/12/20 03:34:41;;;;;;;10.57;4.47;;;;;;;;;;5052925;28;20087;-80
2022/12/20 03:37:25;;;;;;;7.10;3.78;;;;;;;;;;5053517;28;20059;-80
2022/12/20 03:40:10;;;;;;;8.88;4.35;;;;;;;;;;5053533;28;20044;-80
2022/12/20 03:42:55;;;;;;;9.35;5.10;;;;;;;;;;5053745;28;20512;-80
2022/12/20 03:45:39;;;;;;;9.15;4.55;;;;;;;;;;5053704;28;20039;-80
2022/12/20 03:48:24;;;;;;;8.60;4.22;;;;;;;;;;5053267;28;20048;-80
2022/12/20 03:51:08;;;;;;;6.70;4.50;;;;;;;;;;5052336;28;20536;-81
2022/12/20 03:53:53;;;;;;;6.32;3.97;;;;;;;;;;5053521;28;20071;-80
2022/12/20 03:56:37;;;;;;;8.85;3.95;;;;;;;;;;5052455;28;20047;-80
2022/12/20 03:59:22;;;;;;;6.18;4.10;;;;;;;;;;5038327;28;20431;-80
2022/12/20 04:02:07;;;;;;;6.95;4.13;;;;;;;;;;5052348;28;20052;-80
2022/12/20 04:04:52;;;;;;;9.43;5.10;;;;;;;;;;5053472;28;20455;-81
2022/12/20 04:07:36;;;;;;;8.48;4.53;;;;;;;;;;5053271;28;20120;-80
2022/12/20 04:10:21;;;;;;;8.80;4.00;;;;;;;;;;5053253;28;20132;-81
2022/12/20 04:13:05;;;;;;;8.95;4.35;;;;;;;;;;5053179;28;20091;-81
2022/12/20 04:15:50;;;;;;;10.18;4.63;;;;;;;;;;5053380;28;20043;-80
2022/12/20 04:18:34;;;;;;;8.43;4.07;;;;;;;;;;5051844;28;20040;-80
2022/12/20 04:21:27;;;;;;;6.30;4.15;;;9.40;99.90;;;;;;5051710;28;20048;-81
2022/12/20 04:24:12;;;;;;;7.45;4.40;;;;;;;;;;5052759;28;20450;-83
2022/12/20 04:26:56;;;;;;;8.73;4.82;;;;;;;;;;5052843;28;20119;-80
2022/12/20 04:29:41;;;;;;;6.50;4.68;;;;;;;;;;5052356;28;20087;-80
2022/12/20 04:32:25;;;;;;;10.10;5.63;;;;;;;;;;5052595;28;20075;-80
2022/12/20 04:35:10;;;;;;;11.25;5.10;;;;;;;;;;5052960;28;20063;-81
2022/12/20 04:37:55;;;;;;;8.43;4.40;;;;;;;;;;5052849;28;20091;-80
2022/12/20 04:40:39;;;;;;;8.07;4.95;;;;;;;;;;5052142;28;20114;-81
2022/12/20 04:43:23;;;;;;;8.38;4.93;;;;;;;;;;5051431;28;20048;-81
2022/12/20 04:46:08;;;;;;;6.95;4.57;;;;;;;;;;5051785;28;20039;-81
2022/12/20 04:48:53;;;;;;;8.73;4.90;;;;;;;;;;5037751;28;20128;-81
2022/12/20 04:51:38;;;;;;;8.73;5.05;;;;;;;;;;5051353;28;20451;-80
2022/12/20 04:54:25;;;;;;;8.18;5.03;;;9.60;99.90;;;;;;5052277;28;20120;-80
2022/12/20 04:57:10;;;;;;;8.82;4.93;;;;;;;;;;5037583;28;20043;-80
2022/12/20 04:59:54;;;;;;;8.02;4.88;;;;;;;;;;5051639;28;20500;-80
2022/12/20 05:02:38;;;;;;;9.55;4.45;;;;;;;;;;5052124;28;20440;-80
2022/12/20 05:05:23;;;;;;;8.07;4.55;;;;;;;;;;5052354;28;20404;-81
2022/12/20 05:08:08;;;;;;;7.95;4.80;;;;;;;;;;5051580;28;20040;-80
2022/12/20 05:10:52;;;;;;;10.65;5.18;;;;;;;;;;5051499;28;20500;-80
2022/12/20 05:13:37;;;;;;;7.88;4.80;;;;;;;;;;5051147;28;20047;-81
2022/12/20 05:16:22;;;;;;;7.28;4.30;;;;;;;;;;5051171;28;20406;-81
2022/12/20 05:19:07;;;;;;;6.05;4.50;;;;;;;;;;5051471;28;20060;-80
2022/12/20 05:27:58;;;;;;;6.82;4.07;;;;;;;;;;5052321;28;20111;-80
2022/12/20 05:30:43;;;;;;;6.60;3.55;;;;;;;;;;5051927;28;20075;-81
2022/12/20 05:33:28;;;;;;;6.85;3.65;;;;;;;;;;5051046;28;20087;-82
2022/12/20 05:36:12;;;;;;;9.02;4.10;;;;;;;;;;5052295;28;20056;-80
2022/12/20 05:38:57;;;;;;;7.57;4.00;;;;;;;;;;5051160;28;20040;-81
2022/12/20 05:41:41;;;;;;;7.03;3.55;;;;;;;;;;5039619;28;20371;-81
2022/12/20 05:44:26;;;;;;;5.90;3.92;;;;;;;;;;5055554;28;20086;-81
2022/12/20 05:47:11;;;;;;;13.85;4.20;;;;;;;;;;5054598;28;20037;-81
2022/12/20 05:49:55;;;;;;;6.95;3.90;;;;;;;;;;5054421;28;20063;-80
2022/12/20 05:52:40;;;;;;;5.28;3.55;;;;;;;;;;5054249;28;20055;-82
2022/12/20 05:55:24;;;;;;;6.88;3.42;;;;;;;;;;5040226;28;20040;-84
2022/12/20 05:58:12;;;;;;;5.32;3.67;;;;;;;;;;5055592;28;20477;-81
2022/12/20 06:00:56;;;;;;;5.40;3.28;;;;;;;;;;5054618;28;20444;-81
2022/12/20 06:03:41;;;;;;;7.95;4.25;;;;;;;;;;5053946;28;20052;-82
2022/12/20 06:06:25;;;;;;;6.65;3.53;;;;;;;;;;5055357;28;20557;-84
2022/12/20 06:09:10;;;;;;;7.32;3.80;;;;;;;;;;5054387;28;20124;-82
2022/12/20 06:11:55;;;;;;;8.85;3.60;;;;;;;;;;5054219;28;20087;-82
2022/12/20 06:14:40;;;;;;;7.45;3.30;;;;;;;;;;5054835;28;20091;-82
2022/12/20 06:17:25;;;;;;;6.78;4.00;;;;;;;;;;5055157;28;20485;-81
2022/12/20 06:20:11;;;;;;;5.68;3.75;;;;;;;;;;5055074;28;20433;-81
2022/12/20 06:22:55;;;;;;;7.25;4.22;;;;;;;;;;5054051;28;20048;-81
2022/12/20 06:25:40;;;;;;;8.35;3.28;;;;;;;;;;5054442;28;20068;-82
2022/12/20 06:28:24;;;;;;;6.63;3.15;;;;;;;;;;5053896;28;20532;-83
2022/12/20 06:31:10;;;;;;;6.18;3.55;;;10.30;99.90;;;;;;5053985;28;20436;-82
2022/12/20 06:33:55;;;;;;;7.50;3.65;;;;;;;;;;5054991;28;20043;-82
2022/12/20 06:36:39;;;;;;;5.63;3.30;;;;;;;;;;5054372;28;20036;-82
2022/12/20 06:39:24;;;;;;;6.95;2.92;;;;;;;;;;5054826;28;20409;-83
2022/12/20 06:42:08;;;;;;;5.88;3.40;;;;;;;;;;5039683;28;20138;-82
2022/12/20 06:44:53;;;;;;;9.52;3.88;;;;;;;;;;5054358;28;20043;-82
2022/12/20 06:47:38;;;;;;;8.68;3.97;;;;;;;;;;5053262;28;20040;-82
2022/12/20 06:50:23;;;;;;;12.85;4.63;;;;;;;;;;5054451;28;20401;-82
2022/12/20 06:53:07;;;;;;;7.78;4.60;;;;;;;;;;5053286;28;20124;-82
2022/12/20 06:55:52;;;;;;;6.80;4.60;;;;;;;;;;5054073;28;20095;-82
2022/12/20 06:58:37;;;;;;;9.73;4.40;;;;;;;;;;5054115;28;20044;-82
2022/12/20 07:01:21;;;;;;;9.00;4.63;;;;;;;;;;5054402;28;20040;-82
2022/12/20 07:04:06;;;;;;;8.68;5.47;;;;;;;;;;5054332;28;20052;-81
2022/12/20 07:06:51;;;;;;;8.05;5.40;;;;;;;;;;5052942;28;20503;-81
2022/12/20 07:09:36;;;;;;;9.50;5.68;;;;;;;;;;5054022;28;20082;-82
2022/12/20 07:12:21;;;;;;;9.27;5.90;;;;;;;;;;5054055;28;20094;-81
2022/12/20 07:15:06;;;;;;;9.32;6.35;;;;;;;;;;5054163;28;20050;-82
2022/12/20 07:17:51;;;;;;;12.82;6.57;;;;;;;;;;5052709;28;20547;-82
2022/12/20 07:20:35;;;;;;;9.32;6.60;;;;;;;;;;5052717;28;20035;-84
2022/12/20 07:23:20;;;;;;;12.90;6.78;;;;;;;;;;5039111;28;20406;-82
2022/12/20 07:26:05;;;;;;;8.20;6.18;;;;;;;;;;5054143;28;20118;-83
2022/12/20 07:28:49;;;;;;;9.60;6.55;;;;;;;;;;5052735;28;20063;-82
2022/12/20 07:31:34;;;;;;;11.48;7.30;;;;;;;;;;5039055;28;20464;-82
2022/12/20 07:34:19;;;;;;;14.85;7.43;;;;;;;;;;5053078;28;20051;-82
2022/12/20 07:37:03;;;;;;;8.30;6.63;;;;;;;;;;5053858;28;20036;-82
2022/12/20 07:39:48;;;;;;;10.57;7.10;;;;;;;;;;5053541;28;20439;-82
2022/12/20 07:42:33;;;;;;;11.45;7.38;;;;;;;;;;5053764;28;20048;-81
2022/12/20 07:45:17;;;;;;;12.38;7.13;;;;;;;;;;5053793;28;20040;-82
2022/12/20 07:48:02;;;;;;;11.70;7.32;;;;;;;;;;5052263;28;20087;-82
2022/12/20 07:50:47;;;;;;;11.02;6.75;;;;;;;;;;5053406;28;20048;-82
2022/12/20 07:53:33;;;;;;;11.73;7.43;;;10.20;99.90;;;;;;5053653;28;20183;-82
2022/12/20 07:56:21;;;;;;;7.57;5.45;;;10.20;99.90;;;;;;5053616;28;20044;-82
2022/12/20 07:59:06;;;;;;;9.73;6.00;;;;;;;;;;5054060;28;20150;-81
2022/12/20 08:01:51;;;;;;;9.77;6.25;;;;;;;;;;5052076;28;20071;-82
2022/12/20 08:04:36;;;;;;;9.02;5.80;;;;;;;;;;5051764;28;20083;-82
2022/12/20 08:07:20;;;;;;;7.78;5.28;;;;;;;;;;5053552;28;20393;-83
2022/12/20 08:10:07;;;;;;;10.90;5.53;;;10.30;99.90;;;;;;5051889;28;20044;-82
2022/12/20 08:12:52;;;;;;;8.55;5.68;;;;;;;;;;5052937;28;20451;-83
2022/12/20 08:15:37;;;;;;;8.73;5.80;;;;;;;;;;5052207;28;20405;-82
2022/12/20 08:18:22;;;;;;;9.73;5.63;;;;;;;;;;5052188;28;20425;-82
2022/12/20 08:21:07;;;;;;;10.48;6.00;;;;;;;;;;5052799;28;20076;-82
2022/12/20 08:23:51;;;;;;;10.60;5.40;;;;;;;;;;5051668;28;20051;-82
2022/12/20 08:26:40;;;;;;;10.40;5.55;;;10.40;99.90;;;;;;5052017;28;20109;-82
2022/12/20 08:29:25;;;;;;;9.38;4.60;;;;;;;;;;5052986;28;20039;-82
2022/12/20 08:32:11;;;;;;;7.50;4.88;;;;;;;;;;5053168;28;20035;-82
2022/12/20 08:34:56;;;;;;;8.95;4.43;;;;;;;;;;5052711;28;20083;-82
2022/12/20 08:37:41;;;;;;;6.05;4.35;;;;;;;;;;5051868;28;20044;-83
2022/12/20 08:40:25;;;;;;;7.43;4.30;;;;;;;;;;5051989;28;20394;-82
2022/12/20 08:43:09;;;;;;;8.43;4.25;;;;;;;;;;5052416;28;20110;-82
2022/12/20 08:45:54;;;;;;;5.40;3.95;;;;;;;;;;5052389;28;20120;-83
2022/12/20 08:48:39;;;;;;;8.57;3.85;;;;;;;;;;5052731;28;20036;-82
2022/12/20 08:51:24;;;;;;;4.88;3.53;;;;;;;;;;5052665;28;20059;-82
2022/12/20 08:54:09;;;;;;;5.78;3.45;;;;;;;;;;5051345;28;20043;-82
2022/12/20 08:56:53;;;;;;;7.15;3.75;;;;;;;;;;5051361;28;20094;-82
2022/12/20 08:59:38;;;;;;;6.47;3.42;;;;;;;;;;5037683;28;20118;-82
2022/12/20 09:02:22;;;;;;;8.18;3.85;;;;;;;;;;5052610;28;20410;-82
2022/12/20 09:05:07;;;;;;;7.93;3.72;;;10.80;99.90;;;;;;5052235;28;20114;-82
2022/12/20 09:07:51;;;;;;;5.45;3.10;;;;;;;;;;5051328;28;20059;-83
2022/12/20 09:10:36;;;;;;;6.97;3.88;;;;;;;;;;5052668;28;20043;-83
2022/12/20 09:13:20;;;;;;;4.90;3.58;;;;;;;;;;5052500;28;20549;-82
2022/12/20 09:16:06;;;;;;;6.10;3.33;;;10.60;99.90;;;;;;5055039;28;20175;-82
2022/12/20 09:18:52;;;;;;;5.65;3.33;;;10.60;99.90;;;;;;5056167;28;20082;-84
2022/12/20 09:21:37;;;;;;;6.18;3.60;;;;;;;;;;5056242;28;20040;-83
2022/12/20 09:24:22;;;;;;;6.50;3.17;;;;;;;;;;5055378;28;20177;-82
2022/12/20 09:27:06;;;;;;;4.93;3.10;;;;;;;;;;5056265;28;20060;-82
2022/12/20 09:29:51;;;;;;;5.63;3.22;;;;;;;;;;5055307;28;20536;-82
2022/12/20 09:32:36;;;;;;;5.60;3.15;;;;;;;;;;5056373;28;20055;-82
2022/12/20 09:35:21;;;;;;;6.80;3.58;;;;;;;;;;5056382;28;20123;-82
2022/12/20 09:38:05;;;;;;;6.15;3.40;;;;;;;;;;5054934;28;20040;-82
2022/12/20 09:40:52;;;;;;;5.07;2.95;;;10.80;99.90;;;;;;5055044;28;20090;-82
2022/12/20 09:43:37;;;;;;;4.88;2.92;;;;;;;;;;5056019;28;20051;-82
2022/12/20 09:46:22;;;;;;;7.50;3.30;;;10.90;99.90;;;;;;5055201;28;20060;-82
2022/12/20 09:49:16;;;;;;;6.68;3.03;;;10.80;99.90;;;;;;5055681;28;20048;-82
2022/12/20 09:52:27;;;;;;;8.88;3.33;;;10.80;99.90;;;;;;5055730;28;20052;-82
2022/12/20 09:55:44;;;;;;;13.20;4.32;;;10.60;99.90;;;;;;5055497;28;20106;-83
2022/12/20 09:58:47;;;;;;;8.77;3.22;;;10.80;99.90;;;;;;5054906;28;20472;-82
2022/12/20 10:01:35;;;;;;;7.88;3.00;;;10.80;99.90;;;;;;5055724;28;20040;-82
2022/12/20 10:04:27;;;;;;;4.25;2.45;;;10.60;99.90;;;;;;5054432;28;20040;-82
2022/12/20 10:07:12;;;;;;;4.32;2.80;;;;;;;;;;5055359;28;20083;-82
2022/12/20 10:10:16;;;;;;;5.15;3.03;;;10.70;99.90;;;;;;5054594;28;20192;-82
2022/12/20 10:13:40;;;;;;;5.50;3.30;;;11.00;99.90;;;;;;5055221;28;20044;-82
2022/12/20 10:16:25;;;;;;;5.88;2.92;;;;;;;;;;5055448;28;20036;-82
2022/12/20 10:19:52;;;;;;;7.07;2.95;;;10.60;99.90;;;;;;5055204;28;20055;-82
2022/12/20 10:22:57;;;;;;;6.43;3.30;;;10.80;99.90;;;;;;5012779;28;20059;-82
2022/12/20 10:25:43;;;;;;;7.72;3.50;;;10.70;99.90;;;;;;5053376;28;20060;-82
2022/12/20 10:28:33;;;;;;;6.88;3.22;;;10.70;99.90;;;;;;5040165;28;20405;-82
2022/12/20 10:31:18;;;;;;;7.07;3.17;;;;;;;;;;5054894;28;20036;-82
2022/12/20 10:34:03;;;;;;;8.85;3.40;;;;;;;;;;5054848;28;20078;-83
2022/12/20 10:37:07;;;;;;;5.43;3.25;;;10.70;99.90;;;;;;5040062;28;20047;-82
2022/12/20 10:39:52;;;;;;;8.10;3.25;;;;;;;;;;5055128;28;20040;-82
2022/12/20 10:42:42;;;;;;;7.93;3.67;;;10.70;99.90;;;;;;5054858;28;20048;-83
2022/12/20 10:45:37;;;;;;;6.82;3.20;;;10.70;99.90;;;;;;5056153;28;20059;-83
2022/12/20 10:48:28;;;;;;;6.20;3.45;;;;;;;;;;5054131;28;20036;-82
2022/12/20 10:51:16;;;;;;;7.68;3.33;;;10.60;99.90;;;;;;5053424;28;20119;-83
2022/12/20 10:54:02;;;;;;;8.38;3.60;;;10.60;99.90;;;;;;5054753;28;20090;-82
2022/12/20 10:56:56;;;;;;;6.13;3.35;;;10.60;99.90;;;;;;5054678;28;20120;-82
2022/12/20 10:59:47;;;;;;;9.38;3.80;;;10.60;99.90;;;;;;5054587;28;20039;-80
2022/12/20 11:02:35;;;;;;;7.05;3.80;;;10.60;99.90;;;;;;5054563;28;20105;-80
2022/12/20 11:05:23;;;;;;;10.05;4.05;;;10.60;99.90;;;;;;5054267;28;20040;-81
2022/12/20 11:08:17;;;;;;;6.30;3.80;;;11.00;99.90;;;;;;5054154;28;20071;-82
2022/12/20 11:11:24;;;;;;;8.00;3.75;;;11.30;99.90;;;;;;5054530;28;20512;-80
2022/12/20 11:14:14;;;;;;;6.68;4.10;;;10.60;99.90;;;;;;5054070;28;20040;-82
2022/12/20 11:17:12;;;;;;;8.23;5.40;;;10.50;99.90;;;;;;5054343;28;20039;-81
2022/12/20 11:20:22;;;;;;;7.45;3.65;;;10.50;99.90;;;;;;5054243;28;20043;-81
2022/12/20 11:23:39;;;;;;;10.95;3.70;;;10.70;99.90;;;;;;5054140;28;20067;-80
2022/12/20 11:27:02;;;;;;;5.25;3.38;;;10.80;99.90;;;;;;5033199;28;20064;-82
2022/12/20 11:30:27;;;;;;;7.30;3.13;;;10.60;99.90;;;;;;5054161;28;20044;-81
2022/12/20 11:33:44;;;;;;;6.72;3.75;;;10.60;99.90;;;;;;4972979;28;20154;-82
2022/12/20 11:36:44;;;;;;;8.68;4.20;;;;;;;;;;5053670;28;20067;-80
2022/12/20 11:39:39;;;;;;;5.93;3.75;;;10.70;99.90;;;;;;5052669;28;20072;-80
2022/12/20 11:42:24;;;;;;;6.05;3.13;;;;;;;;;;5053382;28;20465;-80
2022/12/20 11:45:26;;;;;;;7.63;3.40;;;10.60;99.90;;;;;;5053796;28;20035;-81
2022/12/20 11:48:28;;;;;;;6.78;3.25;;;10.60;99.90;;;;;;5052765;28;20539;-80
2022/12/20 11:51:40;;;;;;;7.72;3.50;;;10.70;99.90;;;;;;5053347;28;20086;-82
2022/12/20 11:54:48;;;;;;;7.00;3.55;;;10.70;99.90;;;;;;5052293;28;20083;-81
2022/12/20 11:57:46;;;;;;;6.80;3.28;;;10.70;99.90;;;;;;5053217;28;20068;-82
2022/12/20 12:00:34;;;;;;;6.35;3.42;;;10.70;99.90;;;;;;5052249;28;20056;-81
2022/12/20 12:03:28;;;;;;;5.80;3.58;;;;;;;;;;5052085;28;20492;-82
2022/12/20 12:06:15;;;;;;;5.40;3.77;;;;;;;;;;5052648;28;20040;-80
2022/12/20 12:09:00;;;;;;;7.95;3.53;;;;;;;;;;5052530;28;20262;-81
2022/12/20 12:12:00;;;;;;;8.90;3.90;;;11.20;99.90;;;;;;5052363;28;20086;-81
2022/12/20 12:15:22;;;;;;;5.22;3.88;;;10.70;99.90;;;;;;5053188;28;20515;-82
2022/12/20 12:18:17;;;;;;;6.80;3.78;;;;;;;;;;5053243;28;20040;-81
2022/12/20 12:21:11;;;;;;;10.23;4.93;;;10.30;99.90;;;;;;5053089;28;20500;-81
2022/12/20 12:24:23;;;;;;;7.47;4.18;;;10.70;99.90;;;;;;5053055;28;20146;-81
2022/12/20 12:27:22;;;;;;;11.52;4.30;;;10.70;99.90;;;;;;5052635;28;20135;-81
2022/12/20 12:30:13;;;;;;;8.15;3.92;;;10.30;99.90;;;;;;5053047;28;20044;-81
2022/12/20 12:33:05;;;;;;;6.38;4.35;;;10.60;99.90;;;;;;5052126;28;20070;-81
2022/12/20 12:36:27;;;;;;;9.20;4.70;;;10.40;99.90;;;;;;5052831;28;20040;-81
2022/12/20 12:39:43;;;;;;;6.97;4.47;;;10.10;99.90;;;;;;5052934;28;20496;-80
2022/12/20 12:42:29;;;;;;;6.18;4.28;;;;;;;;;;5052358;28;20098;-81
2022/12/20 12:45:16;;;;;;;8.07;4.90;;;;;;;;;;5051879;28;20040;-80
2022/12/20 12:48:12;;;;;;;7.82;5.00;;;10.50;99.90;;;;;;5051710;28;20040;-80
2022/12/20 12:50:58;;;;;;;8.07;4.90;;;10.50;99.90;;;;;;5051580;28;20040;-82
2022/12/20 12:53:53;;;;;;;7.53;4.75;;;10.50;99.90;;;;;;5052410;28;20048;-80
2022/12/20 12:56:38;;;;;;;8.13;4.95;;;;;;;;;;5051512;28;20080;-81
2022/12/20 12:59:39;;;;;;;7.63;4.60;;;10.50;99.90;;;;;;5052316;28;20035;-82
2022/12/20 13:02:33;;;;;;;8.10;5.18;;;10.50;99.90;;;;;;5052346;28;20044;-81
2022/12/20 13:05:20;;;;;;;8.15;4.35;;;10.10;99.90;;;;;;5052736;28;20401;-80
2022/12/20 13:08:15;;;;;;;10.65;4.85;;;10.50;99.90;;;;;;5052707;28;20091;-80
2022/12/20 13:11:00;;;;;;;7.75;4.97;;;10.50;99.90;;;;;;5052586;28;20072;-81
2022/12/20 13:13:46;;;;;;;7.78;5.53;;;10.50;99.90;;;;;;5037169;28;20039;-81
2022/12/20 13:16:31;;;;;;;8.18;5.22;;;;;;;;;;5052173;28;20118;-81
2022/12/20 13:19:24;;;;;;;8.00;5.70;;;10.50;99.90;;;;;;5052501;28;20099;-80
2022/12/20 13:22:11;;;;;;;10.98;5.95;;;10.70;99.90;;;;;;5052698;28;20451;-80
2022/12/20 13:24:58;;;;;;;8.00;5.65;;;10.50;99.90;;;;;;5052418;28;20079;-80
2022/12/20 13:27:42;;;;;;;10.85;5.60;;;;;;;;;;5053033;28;20063;-81
2022/12/20 13:30:27;;;;;;;8.20;5.60;;;10.50;99.90;;;;;;5051165;28;20037;-82
2022/12/20 13:33:41;;;;;;;8.23;6.38;;;10.50;99.90;;;;;;5052339;28;20064;-81
2022/12/20 13:36:30;;;;;;;7.50;5.63;;;10.20;99.90;;;;;;5052427;28;20572;-81
2022/12/20 13:39:20;;;;;;;11.25;6.53;;;10.50;99.90;;;;;;5052247;28;20032;-81
2022/12/20 13:42:37;;;;;;;8.75;6.18;;;10.50;99.90;;;;;;5052216;28;20071;-80
2022/12/20 13:45:22;;;;;;;9.55;6.35;;;;;;;;;;5052183;28;20142;-83
2022/12/20 13:48:11;;;;;;;8.40;5.93;;;10.50;99.90;;;;;;5051390;28;20052;-81
2022/12/20 13:50:56;;;;;;;9.18;6.78;;;;;;;;;;5052218;28;20036;-81
2022/12/20 13:53:59;;;;;;;9.32;6.50;;;10.50;99.90;;;;;;5051883;28;20048;-81
2022/12/20 13:56:51;;;;;;;9.80;6.43;;;10.50;99.90;;;;;;5050839;28;20044;-81
2022/12/20 13:59:35;;;;;;;9.18;6.60;;;;;;;;;;5023013;28;20039;-81
2022/12/20 14:02:40;;;;;;;8.68;6.40;;;10.60;99.90;;;;;;5054468;28;20052;-81
2022/12/20 14:05:30;;;;;;;8.98;6.57;;;10.60;99.90;;;;;;5055756;28;20401;-81
2022/12/20 14:08:21;;;;;;;9.55;6.75;;;10.60;99.90;;;;;;5055774;28;20167;-80
2022/12/20 14:11:12;;;;;;;10.18;7.07;;;10.60;99.90;;;;;;5055735;28;20074;-80
2022/12/20 14:14:01;;;;;;;8.73;6.93;;;;;;;;;;5056132;28;20398;-81
2022/12/20 14:16:46;;;;;;;8.00;6.43;;;;;;;;;;5040162;28;20091;-81
2022/12/20 14:19:31;;;;;;;11.57;7.07;;;;;;;;;;5055489;28;20098;-80
2022/12/20 14:22:15;;;;;;;10.65;7.63;;;;;;;;;;5055526;28;20048;-81
2022/12/20 14:25:04;;;;;;;13.25;8.05;;;10.60;99.90;;;;;;5054355;28;20555;-80
2022/12/20 14:27:48;;;;;;;9.60;7.40;;;;;;;;;;5053774;28;20102;-80
2022/12/20 14:30:40;;;;;;;9.98;8.35;;;10.60;99.90;;;;;;5054138;28;20547;-81
2022/12/20 14:33:35;;;;;;;12.15;8.00;;;10.40;99.90;;;;;;5055569;28;20051;-81
2022/12/20 14:36:21;;;;;;;10.90;7.95;;;;;;;;;;5055138;28;20037;-81
2022/12/20 14:39:27;;;;;;;12.32;7.68;;;10.70;99.90;;;;;;5055142;28;20095;-81
2022/12/20 14:42:13;;;;;;;10.23;8.82;;;10.70;99.90;;;;;;5054894;28;20040;-81
2022/12/20 14:45:25;;;;;;;11.52;8.50;;;10.70;99.90;;;;;;5054623;28;20413;-81
2022/12/20 14:48:16;;;;;;;11.13;8.45;;;10.50;99.90;;;;;;5053911;28;20048;-81
2022/12/20 14:51:04;;;;;;;10.45;8.35;;;10.70;99.90;;;;;;5053497;28;20036;-82
2022/12/20 14:53:50;;;;;;;18.90;9.18;;;10.70;99.90;;;;;;5053518;28;20055;-82
2022/12/20 14:56:34;;;;;;;10.98;8.35;;;;;;;;;;5054673;28;20086;-81
2022/12/20 14:59:28;;;;;;;12.50;8.90;;;10.70;99.90;;;;;;5054708;28;20047;-80
2022/12/20 15:02:37;;;;;;;11.23;8.50;;;10.70;99.90;;;;;;5039550;28;20500;-81
2022/12/20 15:05:37;;;;;;;13.40;10.18;;;10.70;99.90;;;;;;5054732;28;20262;-81
2022/12/20 15:08:22;;;;;;;13.25;9.82;;;;;;;;;;5054611;28;20066;-81
2022/12/20 15:11:09;;;;;;;11.57;10.15;;;10.70;99.90;;;;;;5053808;28;20504;-80
2022/12/20 15:13:54;;;;;;;14.77;10.43;;;;;;;;;;5052876;28;20044;-81
2022/12/20 15:16:47;;;;;;;15.52;11.60;;;10.70;99.90;;;;;;5039522;28;20508;-81
2022/12/20 15:19:32;;;;;;;12.82;10.75;;;;;;;;;;5054618;28;20052;-80
2022/12/20 15:22:18;;;;;;;16.73;12.18;;;;;;;;;;5053554;28;20043;-81
2022/12/20 15:25:15;;;;;;;15.35;11.15;;;10.70;99.90;;;;;;5052903;28;20122;-81
2022/12/20 15:27:59;;;;;;;19.48;11.90;;;;;;;;;;5052002;28;20052;-81
2022/12/20 15:30:45;;;;;;;16.90;12.35;;;10.60;99.90;;;;;;5053716;28;20098;-83
2022/12/20 15:33:31;;;;;;;18.23;12.35;;;10.70;99.90;;;;;;5050600;28;20192;-82
2022/12/20 15:36:19;;;;;;;17.10;12.77;;;10.70;99.90;;;;;;5052199;28;20039;-83
2022/12/20 15:39:04;;;;;;;18.77;14.18;;;;;;;;;;5052582;28;20067;-81
2022/12/20 15:41:49;;;;;;;19.63;14.80;;;;;;;;;;5053508;28;20118;-82
2022/12/20 15:44:34;;;;;;;19.17;13.95;;;;;;;;;;5053506;28;20167;-81
2022/12/20 15:47:19;;;;;;;20.48;14.55;;;;;;;;;;5053499;28;20044;-81
2022/12/20 15:50:04;;;;;;;21.88;14.20;;;10.70;99.90;;;;;;5052373;28;20052;-81
2022/12/20 15:52:49;;;;;;;20.30;14.45;;;;;;;;;;5038214;28;20048;-82
2022/12/20 15:55:33;;;;;;;16.70;14.05;;;;;;;;;;5052499;28;20131;-82
2022/12/20 15:58:18;;;;;;;21.50;15.93;;;;;;;;;;5053562;28;20440;-82
2022/12/20 16:01:03;;;;;;;21.50;15.57;;;;;;;;;;5052266;28;20043;-82
2022/12/20 16:03:47;;;;;;;21.90;15.18;;;;;;;;;;5053464;28;20056;-82
2022/12/20 16:06:32;;;;;;;22.35;15.85;;;;;;;;;;5053258;28;20040;-82
2022/12/20 16:09:16;;;;;;;20.90;15.73;;;;;;;;;;5053306;28;20040;-81
2022/12/20 16:12:02;;;;;;;20.48;15.90;;;;;;;;;;5053012;28;20036;-81